Time;durP1;ratioP1;P1;durP2;ratioP2;P2;SDS_P1;SDS_P2;PMS_P1;PMS_P2;Temp;Humidity;BMP_temperature;BMP_pressure;BME280_temperature;BME280_humidity;BME280_pressure;Samples;Min_cycle;Max_cycle;Signal;HPM_P1;HPM_P2
2020/12/23 00:01:04;;;;;;;67.78;19.85;;;5.90;99.90;;;;;;5045393;28;20041;-71
2020/12/23 00:03:37;;;;;;;82.32;21.15;;;5.90;99.90;;;;;;5016956;28;20107;-70
2020/12/23 00:06:04;;;;;;;78.07;21.23;;;5.90;99.90;;;;;;5049348;28;20049;-72
2020/12/23 00:08:34;;;;;;;79.35;23.33;;;5.90;99.90;;;;;;5048361;28;20033;-71
2020/12/23 00:11:01;;;;;;;89.03;22.77;;;5.90;99.90;;;;;;5022615;28;20045;-71
2020/12/23 00:13:28;;;;;;;81.28;24.48;;;5.90;99.90;;;;;;5048469;28;20036;-71
2020/12/23 00:15:54;;;;;;;82.65;22.67;;;5.90;99.90;;;;;;5050972;28;20044;-71
2020/12/23 00:18:21;;;;;;;75.88;23.00;;;5.90;99.90;;;;;;5023912;28;20072;-71
2020/12/23 00:20:47;;;;;;;72.95;22.50;;;5.90;99.90;;;;;;5050160;28;20048;-71
2020/12/23 00:23:14;;;;;;;81.95;23.10;;;5.90;99.90;;;;;;5034875;28;20059;-71
2020/12/23 00:25:40;;;;;;;75.93;23.45;;;5.90;99.90;;;;;;5042555;28;20045;-71
2020/12/23 00:28:07;;;;;;;79.60;22.73;;;5.90;99.90;;;;;;5031688;28;20060;-71
2020/12/23 00:30:33;;;;;;;81.28;22.13;;;5.90;99.90;;;;;;5022721;28;20722;-71
2020/12/23 00:33:01;;;;;;;73.55;20.77;;;5.90;99.90;;;;;;5040623;28;20438;-70
2020/12/23 00:35:27;;;;;;;77.75;20.25;;;5.90;99.90;;;;;;5037602;28;20045;-71
2020/12/23 00:37:54;;;;;;;74.25;22.77;;;5.90;99.90;;;;;;5048415;28;20040;-71
2020/12/23 00:40:20;;;;;;;89.22;22.58;;;5.90;99.90;;;;;;5060645;28;20042;-71
2020/12/23 00:42:47;;;;;;;78.28;22.30;;;6.00;99.90;;;;;;5044525;28;20060;-71
2020/12/23 00:45:13;;;;;;;75.95;21.40;;;6.00;99.90;;;;;;5019735;28;20091;-71
2020/12/23 00:47:41;;;;;;;71.53;21.75;;;6.00;99.90;;;;;;5037882;28;20072;-71
2020/12/23 00:50:08;;;;;;;83.18;21.35;;;6.00;99.90;;;;;;5046394;28;20083;-71
2020/12/23 00:52:34;;;;;;;71.80;21.70;;;6.00;99.90;;;;;;5029839;28;20547;-71
2020/12/23 00:55:01;;;;;;;86.95;21.42;;;6.00;99.90;;;;;;5042723;28;20061;-71
2020/12/23 00:57:33;;;;;;;83.68;22.73;;;6.10;99.90;;;;;;5023846;28;20107;-71
2020/12/23 01:00:00;;;;;;;69.95;19.10;;;6.10;99.90;;;;;;5028689;28;20041;-71
2020/12/23 01:02:26;;;;;;;86.57;22.17;;;6.10;99.90;;;;;;5049616;28;20050;-70
2020/12/23 01:04:53;;;;;;;90.40;21.38;;;6.10;99.90;;;;;;5048795;28;20103;-71
2020/12/23 01:07:19;;;;;;;84.38;21.42;;;6.10;99.90;;;;;;5041859;28;20057;-71
2020/12/23 01:09:45;;;;;;;75.78;20.63;;;6.10;99.90;;;;;;5045550;28;20545;-71
2020/12/23 01:12:12;;;;;;;79.28;21.13;;;6.10;99.90;;;;;;5049222;28;20404;-71
2020/12/23 01:14:38;;;;;;;76.53;22.92;;;6.10;99.90;;;;;;5041470;28;20029;-70
2020/12/23 01:17:05;;;;;;;83.00;23.05;;;6.10;99.90;;;;;;5034287;28;20091;-71
2020/12/23 01:19:31;;;;;;;86.10;22.52;;;6.10;99.90;;;;;;5044694;28;20041;-70
2020/12/23 01:21:58;;;;;;;79.45;19.95;;;6.10;99.90;;;;;;5039575;28;20107;-71
2020/12/23 01:24:24;;;;;;;78.78;21.88;;;6.10;99.90;;;;;;5043270;28;20447;-71
2020/12/23 01:26:51;;;;;;;90.18;22.38;;;6.10;99.90;;;;;;5040431;28;20404;-71
2020/12/23 01:29:17;;;;;;;77.43;20.83;;;6.10;99.90;;;;;;5032847;28;20439;-70
2020/12/23 01:31:44;;;;;;;84.20;21.88;;;6.10;99.90;;;;;;5045780;28;20044;-70
2020/12/23 01:34:10;;;;;;;87.50;21.83;;;6.10;99.90;;;;;;5042449;28;20091;-71
2020/12/23 01:36:37;;;;;;;91.97;23.25;;;6.10;99.90;;;;;;5049416;28;20076;-70
2020/12/23 01:39:04;;;;;;;73.05;21.00;;;6.10;99.90;;;;;;5045084;28;20048;-71
2020/12/23 01:41:30;;;;;;;90.78;24.50;;;6.10;99.90;;;;;;5037067;28;20041;-71
2020/12/23 01:43:58;;;;;;;92.75;24.85;;;6.10;99.90;;;;;;5035478;28;20045;-70
2020/12/23 01:46:35;;;;;;;95.05;23.58;;;6.10;99.90;;;;;;5040206;28;20488;-71
2020/12/23 01:49:11;;;;;;;75.57;22.15;;;6.10;99.90;;;;;;5043197;28;20797;-71
2020/12/23 01:51:38;;;;;;;101.60;24.33;;;6.10;99.90;;;;;;5042959;28;20568;-71
2020/12/23 01:54:05;;;;;;;94.15;25.20;;;6.10;99.90;;;;;;5022345;28;20044;-71
2020/12/23 01:56:34;;;;;;;101.20;25.00;;;6.10;99.90;;;;;;5044968;28;20103;-71
2020/12/23 01:59:00;;;;;;;101.70;24.40;;;6.10;99.90;;;;;;5035863;28;20045;-71
2020/12/23 02:01:34;;;;;;;87.85;22.40;;;6.10;99.90;;;;;;5031479;28;20049;-71
2020/12/23 02:04:05;;;;;;;89.15;23.27;;;6.10;99.90;;;;;;5039606;28;20037;-71
2020/12/23 02:06:35;;;;;;;94.55;24.70;;;6.10;99.90;;;;;;5022076;28;20496;-70
2020/12/23 02:09:03;;;;;;;87.72;23.17;;;6.20;99.90;;;;;;5051643;28;20057;-71
2020/12/23 02:11:30;;;;;;;94.40;23.83;;;6.20;99.90;;;;;;5040577;28;20099;-71
2020/12/23 02:13:56;;;;;;;91.05;23.42;;;6.10;99.90;;;;;;5044971;28;20052;-71
2020/12/23 02:16:23;;;;;;;93.43;23.40;;;6.20;99.90;;;;;;5036421;28;20037;-71
2020/12/23 02:18:49;;;;;;;86.45;23.50;;;6.20;99.90;;;;;;5046132;28;20741;-71
2020/12/23 02:21:24;;;;;;;86.03;23.23;;;6.20;99.90;;;;;;5039785;28;20420;-71
2020/12/23 02:23:52;;;;;;;88.70;21.23;;;6.20;99.90;;;;;;5028734;28;20053;-71
2020/12/23 02:26:19;;;;;;;82.95;22.95;;;6.20;99.90;;;;;;5031263;28;20049;-71
2020/12/23 02:28:45;;;;;;;89.38;23.30;;;6.30;99.90;;;;;;5025491;28;20102;-71
2020/12/23 02:31:12;;;;;;;84.80;22.73;;;6.20;99.90;;;;;;5024060;28;20045;-71
2020/12/23 02:33:39;;;;;;;86.18;22.42;;;6.20;99.90;;;;;;5043691;28;20038;-71
2020/12/23 02:36:06;;;;;;;89.63;22.50;;;6.20;99.90;;;;;;5027678;28;20092;-71
2020/12/23 02:38:33;;;;;;;92.43;23.83;;;6.20;99.90;;;;;;5030432;28;20096;-71
2020/12/23 02:40:59;;;;;;;85.38;23.42;;;6.30;99.90;;;;;;5038616;28;20041;-71
2020/12/23 02:43:26;;;;;;;88.13;21.88;;;6.30;99.90;;;;;;5030245;28;20045;-71
2020/12/23 02:45:52;;;;;;;76.63;22.10;;;6.30;99.90;;;;;;5042949;28;20484;-71
2020/12/23 02:48:19;;;;;;;81.65;22.92;;;6.30;99.90;;;;;;5030661;28;20442;-71
2020/12/23 02:50:45;;;;;;;90.40;23.55;;;6.30;99.90;;;;;;5040649;28;20036;-71
2020/12/23 02:53:12;;;;;;;103.22;23.42;;;6.30;99.90;;;;;;5045427;28;20420;-70
2020/12/23 02:55:39;;;;;;;82.00;22.00;;;6.30;99.90;;;;;;5022318;28;20053;-71
2020/12/23 02:58:05;;;;;;;73.70;21.85;;;6.30;99.90;;;;;;5039589;28;20041;-71
2020/12/23 03:00:32;;;;;;;76.13;21.88;;;6.30;99.90;;;;;;5039623;28;20123;-71
2020/12/23 03:02:58;;;;;;;67.85;20.92;;;6.30;99.90;;;;;;5045025;28;20040;-71
2020/12/23 03:05:25;;;;;;;69.38;20.23;;;6.30;99.90;;;;;;5044740;28;20056;-71
2020/12/23 03:07:51;;;;;;;80.60;21.23;;;6.30;99.90;;;;;;5024280;28;20037;-71
2020/12/23 03:10:18;;;;;;;79.85;21.45;;;6.40;99.90;;;;;;5049413;28;20095;-71
2020/12/23 03:12:44;;;;;;;74.50;20.98;;;6.40;99.90;;;;;;5048759;28;20052;-71
2020/12/23 03:15:11;;;;;;;78.53;20.58;;;6.40;99.90;;;;;;5045059;28;20431;-71
2020/12/23 03:17:37;;;;;;;70.03;21.30;;;6.30;99.90;;;;;;5050940;28;20446;-71
2020/12/23 03:20:04;;;;;;;70.93;21.38;;;6.30;99.90;;;;;;5028003;28;20099;-71
2020/12/23 03:22:31;;;;;;;61.92;19.60;;;6.30;99.90;;;;;;5050855;28;20393;-71
2020/12/23 03:24:58;;;;;;;69.68;20.95;;;6.30;99.90;;;;;;5047563;28;20033;-71
2020/12/23 03:27:27;;;;;;;66.45;21.45;;;6.30;99.90;;;;;;5052394;28;20037;-71
2020/12/23 03:29:54;;;;;;;83.25;19.90;;;6.30;99.90;;;;;;5045956;28;20056;-71
2020/12/23 03:32:20;;;;;;;60.78;20.27;;;6.30;99.90;;;;;;5050928;28;20052;-71
2020/12/23 03:34:47;;;;;;;66.35;21.20;;;6.30;99.90;;;;;;5038794;28;20098;-71
2020/12/23 03:37:14;;;;;;;85.22;22.02;;;6.30;99.90;;;;;;5020898;28;20110;-71
2020/12/23 03:39:41;;;;;;;70.20;22.42;;;6.30;99.90;;;;;;5050581;28;20037;-71
2020/12/23 03:42:07;;;;;;;73.20;20.65;;;6.30;99.90;;;;;;5047788;28;20056;-71
2020/12/23 03:44:34;;;;;;;73.95;21.05;;;6.30;99.90;;;;;;5031276;28;20045;-71
2020/12/23 03:47:00;;;;;;;66.22;21.65;;;6.30;99.90;;;;;;5044796;28;20053;-70
2020/12/23 03:49:27;;;;;;;68.57;21.75;;;6.40;99.90;;;;;;5044413;28;20431;-71
2020/12/23 03:51:53;;;;;;;70.95;23.25;;;6.40;99.90;;;;;;5041974;28;20041;-70
2020/12/23 03:54:20;;;;;;;74.03;24.33;;;6.40;99.90;;;;;;5042809;28;20049;-71
2020/12/23 03:56:46;;;;;;;66.88;22.05;;;6.40;99.90;;;;;;5041227;28;20052;-72
2020/12/23 03:59:13;;;;;;;81.78;23.00;;;6.40;99.90;;;;;;5049414;28;20079;-69
2020/12/23 04:01:39;;;;;;;69.47;20.63;;;6.40;99.90;;;;;;5040378;28;20054;-68
2020/12/23 04:04:06;;;;;;;70.22;22.30;;;6.40;99.90;;;;;;5030157;28;20133;-68
2020/12/23 04:06:32;;;;;;;61.85;21.00;;;6.40;99.90;;;;;;5037929;28;20114;-69
2020/12/23 04:08:59;;;;;;;61.28;20.15;;;6.50;99.90;;;;;;5045084;28;20049;-68
2020/12/23 04:11:25;;;;;;;74.20;21.23;;;6.50;99.90;;;;;;5048709;28;20041;-69
2020/12/23 04:13:52;;;;;;;67.63;21.65;;;6.50;99.90;;;;;;5050355;28;20041;-69
2020/12/23 04:16:18;;;;;;;77.47;22.35;;;6.50;99.90;;;;;;5042840;28;20041;-69
2020/12/23 04:18:44;;;;;;;70.57;21.30;;;6.50;99.90;;;;;;5047625;28;20083;-69
2020/12/23 04:21:11;;;;;;;67.60;22.48;;;6.50;99.90;;;;;;5040581;28;20052;-69
2020/12/23 04:23:38;;;;;;;68.53;20.77;;;6.50;99.90;;;;;;5042052;28;20724;-69
2020/12/23 04:26:05;;;;;;;65.53;19.85;;;6.50;99.90;;;;;;5033087;28;20053;-69
2020/12/23 04:28:31;;;;;;;66.47;20.17;;;6.50;99.90;;;;;;5039392;28;20459;-69
2020/12/23 04:30:58;;;;;;;65.72;22.35;;;6.60;99.90;;;;;;5048954;28;20056;-69
2020/12/23 04:33:24;;;;;;;74.93;20.92;;;6.60;99.90;;;;;;5029512;28;20488;-68
2020/12/23 04:35:58;;;;;;;71.25;20.77;;;6.50;99.90;;;;;;5042012;28;20045;-68
2020/12/23 04:38:25;;;;;;;66.38;21.55;;;6.60;99.90;;;;;;5048526;28;20041;-69
2020/12/23 04:40:52;;;;;;;70.35;20.20;;;6.60;99.90;;;;;;5036921;28;20059;-69
2020/12/23 04:43:19;;;;;;;65.72;19.80;;;6.60;99.90;;;;;;5039290;28;20769;-69
2020/12/23 04:45:46;;;;;;;74.78;20.15;;;6.60;99.90;;;;;;5040424;28;20048;-69
2020/12/23 04:48:14;;;;;;;63.97;20.80;;;6.70;99.90;;;;;;5041615;28;20042;-69
2020/12/23 04:50:44;;;;;;;64.80;19.75;;;6.70;99.90;;;;;;5045625;28;20419;-69
2020/12/23 04:53:11;;;;;;;66.57;20.85;;;6.70;99.90;;;;;;5058665;28;20041;-69
2020/12/23 04:55:41;;;;;;;66.57;23.23;;;6.70;99.90;;;;;;5046865;28;20040;-69
2020/12/23 04:58:10;;;;;;;75.50;23.60;;;6.70;99.90;;;;;;5040347;28;20084;-69
2020/12/23 05:00:37;;;;;;;77.43;25.38;;;6.70;99.90;;;;;;5044437;28;20064;-69
2020/12/23 05:03:03;;;;;;;67.65;21.08;;;6.70;99.90;;;;;;5050273;28;20098;-69
2020/12/23 05:05:30;;;;;;;62.90;20.00;;;6.70;99.90;;;;;;5048214;28;20063;-68
2020/12/23 05:07:57;;;;;;;64.53;22.70;;;6.60;99.90;;;;;;5037117;28;20048;-69
2020/12/23 05:10:27;;;;;;;81.57;28.40;;;6.60;99.90;;;;;;5050541;28;20049;-69
2020/12/23 05:12:56;;;;;;;61.78;20.98;;;6.60;99.90;;;;;;5048657;28;20508;-69
2020/12/23 05:15:23;;;;;;;67.70;21.90;;;6.60;99.90;;;;;;5025430;28;20611;-69
2020/12/23 05:17:51;;;;;;;73.07;21.55;;;6.60;99.90;;;;;;5029939;28;20049;-69
2020/12/23 05:20:18;;;;;;;73.07;22.27;;;6.60;99.90;;;;;;5041874;28;20095;-69
2020/12/23 05:22:51;;;;;;;68.65;23.02;;;6.60;99.90;;;;;;5026188;28;20049;-69
2020/12/23 05:25:18;;;;;;;76.10;24.30;;;6.60;99.90;;;;;;5043139;28;20036;-69
2020/12/23 05:27:48;;;;;;;71.65;24.58;;;6.60;99.90;;;;;;5041368;28;20353;-69
2020/12/23 05:30:18;;;;;;;81.97;24.33;;;6.60;99.90;;;;;;5046412;28;20037;-68
2020/12/23 05:32:46;;;;;;;76.80;22.63;;;6.60;99.90;;;;;;5047011;28;20068;-69
2020/12/23 05:35:15;;;;;;;77.57;23.13;;;6.60;99.90;;;;;;5040237;28;20428;-70
2020/12/23 05:37:42;;;;;;;66.07;23.17;;;6.60;99.90;;;;;;5046735;28;20063;-69
2020/12/23 05:40:08;;;;;;;68.45;21.88;;;6.60;99.90;;;;;;5043185;28;20049;-69
2020/12/23 05:42:38;;;;;;;72.85;24.60;;;6.60;99.90;;;;;;5043087;28;20446;-68
2020/12/23 05:45:06;;;;;;;69.93;22.05;;;6.60;99.90;;;;;;5025346;28;20056;-69
2020/12/23 05:47:34;;;;;;;76.10;24.30;;;6.60;99.90;;;;;;5034161;28;20517;-69
2020/12/23 05:50:01;;;;;;;70.88;23.33;;;6.70;99.90;;;;;;5036924;28;20067;-69
2020/12/23 05:52:32;;;;;;;76.93;23.98;;;6.70;99.90;;;;;;5024757;28;20580;-69
2020/12/23 05:54:58;;;;;;;62.30;22.23;;;6.70;99.90;;;;;;5045849;28;20040;-69
2020/12/23 05:57:25;;;;;;;63.75;21.83;;;6.70;99.90;;;;;;5046938;28;20036;-69
2020/12/23 05:59:52;;;;;;;67.53;23.17;;;6.70;99.90;;;;;;5048208;28;20439;-69
2020/12/23 06:02:23;;;;;;;76.32;23.23;;;6.70;99.90;;;;;;5033443;28;20057;-69
2020/12/23 06:04:53;;;;;;;64.68;22.67;;;6.70;99.90;;;;;;5024340;28;20064;-69
2020/12/23 06:07:25;;;;;;;63.65;22.52;;;6.70;99.90;;;;;;5042112;28;20037;-69
2020/12/23 06:09:58;;;;;;;68.53;22.45;;;6.70;99.90;;;;;;5044983;28;20500;-69
2020/12/23 06:12:29;;;;;;;68.32;23.15;;;6.70;99.90;;;;;;5031576;28;20041;-69
2020/12/23 06:14:58;;;;;;;69.85;21.48;;;6.80;99.90;;;;;;5043766;28;20112;-69
2020/12/23 06:17:26;;;;;;;64.85;22.23;;;6.80;99.90;;;;;;5042300;28;20182;-69
2020/12/23 06:19:56;;;;;;;57.72;22.33;;;6.70;99.90;;;;;;5040754;28;20045;-68
2020/12/23 06:22:24;;;;;;;61.45;21.15;;;6.70;99.90;;;;;;5043932;28;20057;-69
2020/12/23 06:24:51;;;;;;;56.70;20.80;;;6.70;99.90;;;;;;5040095;28;20393;-69
2020/12/23 06:27:18;;;;;;;60.97;21.23;;;6.70;99.90;;;;;;5038646;28;20057;-70
2020/12/23 06:29:46;;;;;;;58.25;20.60;;;6.80;99.90;;;;;;5035401;28;20065;-70
2020/12/23 06:32:22;;;;;;;58.10;20.25;;;6.80;99.90;;;;;;5038310;28;20045;-69
2020/12/23 06:35:00;;;;;;;56.05;19.20;;;6.70;99.90;;;;;;5042793;28;20036;-69
2020/12/23 06:37:30;;;;;;;52.40;19.85;;;6.80;99.90;;;;;;5044164;28;20051;-70
2020/12/23 06:39:57;;;;;;;59.53;20.65;;;6.80;99.90;;;;;;5046581;28;20041;-69
2020/12/23 06:42:26;;;;;;;57.95;20.83;;;6.80;99.90;;;;;;5056492;28;20182;-70
2020/12/23 06:44:55;;;;;;;57.80;19.98;;;6.80;99.90;;;;;;5031356;28;20415;-70
2020/12/23 06:47:24;;;;;;;69.10;23.75;;;6.80;99.90;;;;;;5044646;28;20034;-70
2020/12/23 06:50:02;;;;;;;55.45;22.00;;;6.80;99.90;;;;;;5039035;28;20033;-70
2020/12/23 06:52:30;;;;;;;51.17;20.42;;;6.80;99.90;;;;;;5047588;28;20095;-70
2020/12/23 06:55:10;;;;;;;55.50;18.98;;;6.80;99.90;;;;;;5047103;28;20044;-70
2020/12/23 06:57:38;;;;;;;60.80;22.20;;;6.80;99.90;;;;;;5048048;28;20487;-71
2020/12/23 07:00:07;;;;;;;65.20;23.05;;;6.80;99.90;;;;;;5045914;28;20057;-69
2020/12/23 07:02:41;;;;;;;50.08;20.10;;;6.80;99.90;;;;;;5051044;28;20140;-69
2020/12/23 07:05:08;;;;;;;57.28;19.60;;;6.80;99.90;;;;;;5033324;28;20045;-66
2020/12/23 07:07:42;;;;;;;53.65;18.58;;;6.80;99.90;;;;;;5046198;28;20110;-67
2020/12/23 07:10:26;;;;;;;52.28;19.05;;;6.90;99.90;;;;;;5046635;28;20110;-66
2020/12/23 07:13:15;;;;;;;61.10;21.63;;;7.00;99.90;;;;;;5049193;28;20044;-66
2020/12/23 07:15:54;;;;;;;56.70;21.75;;;7.00;99.90;;;;;;5044715;28;20591;-66
2020/12/23 07:18:28;;;;;;;53.85;18.52;;;7.10;99.90;;;;;;5032274;28;20048;-66
2020/12/23 07:21:00;;;;;;;53.80;19.40;;;7.10;99.90;;;;;;5050057;28;20045;-66
2020/12/23 07:23:32;;;;;;;52.00;18.88;;;7.20;99.90;;;;;;5040135;28;20041;-67
2020/12/23 07:26:04;;;;;;;56.83;20.35;;;7.20;99.90;;;;;;5043450;28;20427;-66
2020/12/23 07:28:32;;;;;;;52.05;18.65;;;7.30;99.90;;;;;;5043302;28;20049;-66
2020/12/23 07:31:00;;;;;;;54.65;20.65;;;7.30;99.90;;;;;;5028108;28;20045;-66
2020/12/23 07:33:28;;;;;;;72.75;27.70;;;7.40;99.90;;;;;;5020478;28;20138;-67
2020/12/23 07:35:57;;;;;;;54.53;22.05;;;7.50;99.90;;;;;;5046364;28;20044;-66
2020/12/23 07:38:25;;;;;;;85.78;34.63;;;7.60;99.90;;;;;;5055130;28;20048;-66
2020/12/23 07:40:53;;;;;;;144.25;43.63;;;7.60;99.90;;;;;;5051629;28;20041;-67
2020/12/23 07:43:21;;;;;;;91.35;31.33;;;7.70;99.90;;;;;;5045521;28;20053;-67
2020/12/23 07:45:48;;;;;;;59.83;24.30;;;7.70;99.90;;;;;;5019790;28;20053;-67
2020/12/23 07:48:18;;;;;;;76.88;26.38;;;7.80;99.90;;;;;;5041385;28;20044;-67
2020/12/23 07:50:55;;;;;;;67.35;23.77;;;7.80;99.90;;;;;;5028470;28;20136;-66
2020/12/23 07:53:27;;;;;;;56.28;22.20;;;7.80;99.90;;;;;;5047873;28;20056;-66
2020/12/23 07:56:05;;;;;;;56.67;22.15;;;7.90;99.90;;;;;;5051338;28;20041;-66
2020/12/23 07:58:33;;;;;;;79.07;29.92;;;8.00;99.90;;;;;;5051985;28;20033;-66
2020/12/23 08:01:00;;;;;;;123.25;41.05;;;8.10;99.90;;;;;;5045907;28;20043;-66
2020/12/23 08:03:29;;;;;;;70.50;27.38;;;8.10;99.90;;;;;;5029839;28;20045;-66
2020/12/23 08:06:12;;;;;;;55.33;19.83;;;8.20;99.90;;;;;;5041340;28;20047;-66
2020/12/23 08:08:39;;;;;;;;;;;8.20;99.90;;;;;;5033649;28;20041;-66
2020/12/23 08:11:07;;;;;;;52.53;21.38;;;8.20;99.90;;;;;;5043641;28;19939;-66
2020/12/23 08:13:34;;;;;;;48.13;19.15;;;8.30;99.90;;;;;;5036009;28;20417;-67
2020/12/23 08:16:13;;;;;;;49.92;18.60;;;8.30;99.90;;;;;;5038121;28;20056;-66
2020/12/23 08:18:41;;;;;;;45.72;16.83;;;8.30;99.90;;;;;;5029359;28;20067;-66
2020/12/23 08:21:18;;;;;;;54.20;19.98;;;8.40;99.90;;;;;;5027065;28;20398;-66
2020/12/23 08:23:47;;;;;;;50.72;20.23;;;8.40;99.90;;;;;;5044493;28;20045;-66
2020/12/23 08:26:14;;;;;;;66.60;26.63;;;8.40;99.90;;;;;;5045710;28;20045;-66
2020/12/23 08:28:45;;;;;;;42.80;17.75;;;8.50;99.90;;;;;;5039501;28;20037;-68
2020/12/23 08:31:15;;;;;;;42.15;17.25;;;8.50;99.90;;;;;;5030129;28;20064;-66
2020/12/23 08:33:43;;;;;;;50.20;20.30;;;8.50;99.90;;;;;;5044415;28;20056;-66
2020/12/23 08:36:10;;;;;;;62.25;24.33;;;8.50;99.90;;;;;;5044895;28;20056;-66
2020/12/23 08:38:42;;;;;;;47.67;20.02;;;8.50;99.90;;;;;;5049507;28;20127;-66
2020/12/23 08:41:17;;;;;;;40.60;16.95;;;8.60;99.90;;;;;;5050420;28;20068;-65
2020/12/23 08:43:46;;;;;;;74.72;26.67;;;8.70;99.90;;;;;;5040963;28;20106;-67
2020/12/23 08:46:20;;;;;;;53.17;20.75;;;8.80;99.90;;;;;;5030583;28;20037;-66
2020/12/23 08:48:49;;;;;;;66.60;25.10;;;8.80;99.90;;;;;;5045149;28;20060;-66
2020/12/23 08:51:21;;;;;;;49.00;19.13;;;8.90;99.90;;;;;;5048974;28;20052;-66
2020/12/23 08:53:56;;;;;;;48.05;19.88;;;8.90;99.90;;;;;;5031892;28;20068;-66
2020/12/23 08:56:30;;;;;;;47.25;20.20;;;8.90;99.90;;;;;;5041342;28;20065;-65
2020/12/23 08:59:01;;;;;;;39.85;16.20;;;8.90;99.90;;;;;;5044874;28;20138;-67
2020/12/23 09:01:29;;;;;;;48.28;19.10;;;8.90;99.90;;;;;;5047996;28;20049;-67
2020/12/23 09:04:09;;;;;;;60.85;26.88;;;8.90;99.90;;;;;;5050186;28;20549;-67
2020/12/23 09:06:38;;;;;;;52.40;25.50;;;9.00;99.90;;;;;;5045595;28;20048;-67
2020/12/23 09:09:17;;;;;;;51.70;21.83;;;9.10;99.90;;;;;;5039596;28;20084;-66
2020/12/23 09:11:56;;;;;;;53.05;26.27;;;9.10;99.90;;;;;;5045645;28;20048;-67
2020/12/23 09:14:39;;;;;;;46.63;23.45;;;9.10;99.90;;;;;;5046542;28;20086;-66
2020/12/23 09:17:18;;;;;;;47.78;20.40;;;9.10;99.90;;;;;;5049102;28;20091;-66
2020/12/23 09:19:54;;;;;;;41.05;17.65;;;9.10;99.90;;;;;;5043762;28;20598;-67
2020/12/23 09:22:38;;;;;;;45.63;17.27;;;9.10;99.90;;;;;;5040741;28;20056;-66
2020/12/23 09:25:22;;;;;;;41.92;17.52;;;9.10;99.90;;;;;;5047909;28;20183;-66
2020/12/23 09:27:54;;;;;;;46.25;18.63;;;9.10;99.90;;;;;;5064517;28;20048;-66
2020/12/23 09:30:44;;;;;;;36.65;16.17;;;9.10;99.90;;;;;;5041623;28;20514;-66
2020/12/23 09:33:13;;;;;;;42.78;18.08;;;9.20;99.90;;;;;;5047071;28;20094;-66
2020/12/23 09:35:41;;;;;;;45.83;18.55;;;9.20;99.90;;;;;;5048657;28;20051;-66
2020/12/23 09:38:24;;;;;;;43.65;17.92;;;9.30;99.90;;;;;;5037138;28;20041;-66
2020/12/23 09:40:55;;;;;;;32.05;14.15;;;9.30;99.90;;;;;;5049152;28;20048;-66
2020/12/23 09:43:28;;;;;;;34.73;14.27;;;9.40;99.90;;;;;;5030069;28;20033;-65
2020/12/23 09:45:57;;;;;;;37.20;15.23;;;9.50;99.90;;;;;;5047520;28;20298;-66
2020/12/23 09:48:25;;;;;;;36.08;15.05;;;9.50;99.90;;;;;;5041823;28;20051;-66
2020/12/23 09:50:54;;;;;;;32.88;14.38;;;9.60;99.90;;;;;;5034516;28;20057;-66
2020/12/23 09:53:22;;;;;;;31.90;15.13;;;9.70;99.90;;;;;;5046830;28;20044;-66
2020/12/23 09:55:49;;;;;;;40.33;18.77;;;9.70;99.90;;;;;;5046420;28;20045;-66
2020/12/23 09:58:17;;;;;;;36.63;16.20;;;9.70;99.90;;;;;;5035932;28;20045;-67
2020/12/23 10:00:46;;;;;;;29.77;13.68;;;9.90;99.90;;;;;;5037528;28;20039;-66
2020/12/23 10:03:13;;;;;;;34.35;14.25;;;9.90;99.90;;;;;;5037230;28;20525;-66
2020/12/23 10:05:40;;;;;;;27.08;12.93;;;9.90;99.90;;;;;;5004754;28;21854;-66
2020/12/23 10:08:08;;;;;;;27.90;13.55;;;9.90;99.90;;;;;;5023534;28;20095;-66
2020/12/23 10:10:37;;;;;;;33.22;13.07;;;10.00;99.90;;;;;;5038833;28;20457;-66
2020/12/23 10:13:04;;;;;;;28.85;11.43;;;10.00;99.90;;;;;;5026358;28;20131;-66
2020/12/23 10:15:32;;;;;;;26.48;12.07;;;10.00;99.90;;;;;;5029529;28;20048;-66
2020/12/23 10:17:59;;;;;;;27.08;12.05;;;10.00;99.90;;;;;;5039426;28;20396;-66
2020/12/23 10:20:25;;;;;;;27.42;12.00;;;10.00;99.90;;;;;;5042679;28;20507;-65
2020/12/23 10:22:52;;;;;;;27.75;12.32;;;10.00;99.90;;;;;;5033883;28;20064;-66
2020/12/23 10:25:19;;;;;;;32.03;13.65;;;10.00;99.90;;;;;;5036656;28;20053;-66
2020/12/23 10:27:45;;;;;;;28.75;12.30;;;10.10;99.90;;;;;;5042076;28;20049;-65
2020/12/23 10:30:12;;;;;;;25.50;11.32;;;10.20;99.90;;;;;;5038905;28;20686;-66
2020/12/23 10:32:39;;;;;;;29.65;11.35;;;10.20;99.90;;;;;;5046557;28;20049;-65
2020/12/23 10:35:07;;;;;;;27.70;12.18;;;10.30;99.90;;;;;;5036889;28;20071;-65
2020/12/23 10:37:34;;;;;;;30.77;12.45;;;10.40;99.90;;;;;;5026865;28;20064;-65
2020/12/23 10:40:02;;;;;;;30.20;12.52;;;10.50;99.90;;;;;;5033305;28;20447;-65
2020/12/23 10:42:29;;;;;;;25.40;10.95;;;10.50;99.90;;;;;;5034643;28;20418;-67
2020/12/23 10:44:56;;;;;;;26.45;11.40;;;10.60;99.90;;;;;;5037735;28;20037;-66
2020/12/23 10:47:32;;;;;;;26.65;11.60;;;10.60;99.90;;;;;;5049632;28;20552;-66
2020/12/23 10:50:00;;;;;;;26.77;10.68;;;10.70;99.90;;;;;;5034563;28;20040;-66
2020/12/23 10:52:27;;;;;;;25.70;10.73;;;10.70;99.90;;;;;;5022366;28;20044;-66
2020/12/23 10:54:55;;;;;;;24.50;10.95;;;10.80;99.90;;;;;;5030246;28;20048;-65
2020/12/23 10:57:21;;;;;;;28.33;12.65;;;10.70;99.90;;;;;;5041319;28;20036;-65
2020/12/23 10:59:48;;;;;;;27.25;12.02;;;10.90;99.90;;;;;;5038606;28;20155;-65
2020/12/23 11:02:15;;;;;;;21.35;9.57;;;11.30;99.90;;;;;;5047237;28;20052;-66
2020/12/23 11:04:42;;;;;;;22.58;10.57;;;11.80;99.90;;;;;;5050780;28;20044;-65
2020/12/23 11:07:11;;;;;;;23.65;10.10;;;12.20;99.90;;;;;;5044750;28;20043;-66
2020/12/23 11:09:38;;;;;;;25.08;10.52;;;12.80;99.90;;;;;;5047436;28;20059;-66
2020/12/23 11:12:04;;;;;;;23.42;11.32;;;13.00;99.90;;;;;;5042613;28;20099;-65
2020/12/23 11:14:32;;;;;;;22.05;10.05;;;13.00;99.90;;;;;;5043513;28;20420;-65
2020/12/23 11:16:58;;;;;;;24.33;10.13;;;12.80;99.90;;;;;;5047509;28;20577;-63
2020/12/23 11:19:25;;;;;;;24.50;11.20;;;12.80;99.90;;;;;;5038729;28;20045;-65
2020/12/23 11:21:53;;;;;;;22.85;9.93;;;13.20;99.60;;;;;;5039931;28;20577;-64
2020/12/23 11:24:19;;;;;;;23.77;10.10;;;13.60;98.70;;;;;;5042808;28;20029;-65
2020/12/23 11:26:48;;;;;;;24.48;10.30;;;13.50;97.80;;;;;;5040795;28;20055;-65
2020/12/23 11:29:15;;;;;;;23.20;10.93;;;13.60;96.90;;;;;;5037399;28;20041;-66
2020/12/23 11:31:41;;;;;;;31.10;13.82;;;13.60;96.20;;;;;;5061453;28;20048;-66
2020/12/23 11:34:07;;;;;;;28.52;12.40;;;14.00;96.30;;;;;;5044761;28;20045;-66
2020/12/23 11:36:34;;;;;;;34.10;14.77;;;14.00;95.30;;;;;;5043719;28;20061;-66
2020/12/23 11:39:01;;;;;;;28.80;11.50;;;13.80;95.40;;;;;;5039950;28;20503;-66
2020/12/23 11:41:27;;;;;;;29.38;12.88;;;13.40;95.90;;;;;;5027591;28;20734;-67
2020/12/23 11:43:55;;;;;;;24.42;12.38;;;13.00;97.70;;;;;;5044020;28;20057;-67
2020/12/23 11:46:22;;;;;;;33.80;16.95;;;13.10;98.00;;;;;;5034082;28;20056;-67
2020/12/23 11:48:48;;;;;;;24.05;10.93;;;13.50;97.40;;;;;;5039280;28;20104;-67
2020/12/23 11:51:15;;;;;;;25.42;10.95;;;13.90;95.80;;;;;;5032446;28;20041;-66
2020/12/23 11:53:43;;;;;;;21.48;10.52;;;14.10;95.20;;;;;;5045852;28;20045;-66
2020/12/23 11:56:10;;;;;;;26.92;11.57;;;14.30;94.60;;;;;;5039731;28;20796;-66
2020/12/23 11:58:36;;;;;;;27.33;11.43;;;14.40;93.20;;;;;;5029874;28;20527;-66
2020/12/23 12:01:03;;;;;;;26.63;10.88;;;14.40;93.40;;;;;;5031898;28;20041;-66
2020/12/23 12:03:30;;;;;;;22.65;10.38;;;14.20;94.30;;;;;;5033026;28;20049;-67
2020/12/23 12:05:57;;;;;;;27.40;10.48;;;13.90;95.60;;;;;;5040542;28;20044;-67
2020/12/23 12:08:23;;;;;;;21.88;9.65;;;13.60;95.80;;;;;;5041327;28;20739;-66
2020/12/23 12:10:54;;;;;;;19.88;9.70;;;13.40;96.40;;;;;;5041209;28;20147;-66
2020/12/23 12:13:22;;;;;;;23.20;11.18;;;13.30;97.00;;;;;;5031842;28;20037;-66
2020/12/23 12:15:49;;;;;;;27.05;11.93;;;13.10;97.80;;;;;;5034221;28;20041;-66
2020/12/23 12:18:16;;;;;;;25.02;10.10;;;13.00;97.50;;;;;;5045683;28;20045;-66
2020/12/23 12:20:45;;;;;;;30.80;12.02;;;12.80;97.90;;;;;;5058119;28;20094;-66
2020/12/23 12:23:11;;;;;;;23.52;10.70;;;12.70;98.70;;;;;;5040779;28;20060;-65
2020/12/23 12:25:39;;;;;;;26.33;10.57;;;12.50;99.70;;;;;;5038088;28;20068;-65
2020/12/23 12:28:06;;;;;;;26.58;11.45;;;12.40;99.90;;;;;;5044621;28;20069;-65
2020/12/23 12:30:35;;;;;;;21.65;9.63;;;12.40;99.90;;;;;;5042927;28;20025;-66
2020/12/23 12:33:03;;;;;;;22.33;9.75;;;12.40;99.90;;;;;;5047718;28;20108;-66
2020/12/23 12:35:30;;;;;;;22.95;9.73;;;12.50;99.90;;;;;;5049621;28;20045;-65
2020/12/23 12:37:56;;;;;;;21.23;8.68;;;12.40;99.90;;;;;;5049794;28;20037;-66
2020/12/23 12:40:23;;;;;;;18.85;9.35;;;12.40;99.90;;;;;;5045489;28;20033;-65
2020/12/23 12:42:50;;;;;;;24.23;10.40;;;12.30;99.90;;;;;;5045969;28;20499;-66